createdAt,value
2024-02-13T00:00:15.472Z,98926.50
2024-02-13T00:02:51.182Z,98934.78
2024-02-13T00:05:25.317Z,98946.69
2024-02-13T00:08:01.336Z,98943.53
2024-02-13T00:10:34.543Z,98947.88
2024-02-13T00:13:07.571Z,98955.78
2024-02-13T00:15:40.759Z,98951.81
2024-02-13T00:18:15.214Z,98960.50
2024-02-13T00:20:48.251Z,98973.97
2024-02-13T00:23:21.387Z,98981.88
2024-02-13T00:25:54.573Z,98981.09
2024-02-13T00:28:27.962Z,98987.03
2024-02-13T00:31:01.490Z,98983.84
2024-02-13T00:33:37.039Z,98986.22
2024-02-13T00:36:10.164Z,98989.38
2024-02-13T00:38:45.425Z,98996.88
2024-02-13T00:41:18.458Z,99002.00
2024-02-13T00:43:51.987Z,99005.19
2024-02-13T00:46:25.151Z,99009.91
2024-02-13T00:48:59.868Z,99005.56
2024-02-13T00:51:32.899Z,99017.44
2024-02-13T00:54:05.900Z,99017.78
2024-02-13T00:56:38.899Z,99027.25
2024-02-13T00:59:12.156Z,99018.97
2024-02-13T01:01:45.226Z,99024.44
2024-02-13T01:04:19.812Z,99036.31
2024-02-13T01:06:52.913Z,99041.84
2024-02-13T01:09:26.416Z,99046.59
2024-02-13T01:11:59.381Z,99049.00
2024-02-13T01:14:32.519Z,99051.38
2024-02-13T01:17:05.825Z,99056.50
2024-02-13T01:19:40.304Z,99054.53
2024-02-13T01:22:13.301Z,99063.94
2024-02-13T01:24:46.270Z,99066.38
2024-02-13T01:27:20.273Z,99064.38
2024-02-13T01:29:54.064Z,99072.25
2024-02-13T01:32:28.388Z,99069.50
2024-02-13T01:35:02.828Z,99071.09
2024-02-13T01:37:38.113Z,99092.78
2024-02-13T01:40:12.703Z,99094.31
2024-02-13T01:42:49.847Z,99093.50
2024-02-13T01:45:23.663Z,99102.19
2024-02-13T01:47:57.323Z,99097.88
2024-02-13T01:50:32.568Z,99106.06
2024-02-13T01:53:06.178Z,99105.28
2024-02-13T01:55:39.736Z,99108.63
2024-02-13T01:58:13.744Z,99113.47
2024-02-13T02:00:46.997Z,99114.00
2024-02-13T02:03:20.286Z,99112.78
2024-02-13T02:05:55.256Z,99123.78
2024-02-13T02:08:28.307Z,99123.81
2024-02-13T02:11:01.329Z,99127.78
2024-02-13T02:13:34.454Z,99126.50
2024-02-13T02:16:08.414Z,99137.97
2024-02-13T02:18:42.371Z,99136.78
2024-02-13T02:21:19.872Z,99134.00
2024-02-13T02:23:52.936Z,99134.41
2024-02-13T02:26:27.364Z,99138.53
2024-02-13T02:29:00.478Z,99133.50
2024-02-13T02:31:33.474Z,99139.81
2024-02-13T02:34:06.572Z,99139.41
2024-02-13T02:36:39.522Z,99141.81
2024-02-13T02:39:12.424Z,99138.88
2024-02-13T02:41:47.009Z,99148.16
2024-02-13T02:44:20.834Z,99146.81
2024-02-13T02:46:53.833Z,99159.06
2024-02-13T02:49:26.752Z,99157.97
2024-02-13T02:51:59.612Z,99166.91
2024-02-13T02:54:32.503Z,99160.34
2024-02-13T02:57:06.968Z,99171.78
2024-02-13T02:59:40.398Z,99178.53
2024-02-13T03:02:13.422Z,99181.50
2024-02-13T03:04:46.845Z,99176.84
2024-02-13T03:07:19.804Z,99187.47
2024-02-13T03:09:52.824Z,99191.84
2024-02-13T03:12:27.278Z,99188.13
2024-02-13T03:15:00.198Z,99189.47
2024-02-13T03:17:33.257Z,99199.13
2024-02-13T03:20:08.489Z,99196.47
2024-02-13T03:22:43.025Z,99195.09
2024-02-13T03:25:16.072Z,99192.56
2024-02-13T03:27:50.299Z,99190.59
2024-02-13T03:30:23.230Z,99199.22
2024-02-13T03:32:56.173Z,99204.28
2024-02-13T03:35:31.613Z,99200.72
2024-02-13T03:38:05.502Z,99200.22
2024-02-13T03:40:38.512Z,99205.09
2024-02-13T03:43:12.785Z,99204.63
2024-02-13T03:45:46.755Z,99203.88
2024-02-13T03:48:22.622Z,99205.50
2024-02-13T03:50:55.667Z,99209.53
2024-02-13T03:53:28.640Z,99216.59
2024-02-13T03:56:03.174Z,99225.38
2024-02-13T03:58:37.498Z,99220.56
2024-02-13T04:01:10.999Z,99221.66
2024-02-13T04:03:45.029Z,99220.91
2024-02-13T04:06:18.000Z,99236.78
2024-02-13T04:08:50.961Z,99239.91
2024-02-13T04:11:24.418Z,99242.16
2024-02-13T04:13:58.723Z,99243.34
2024-02-13T04:16:31.883Z,99242.66
2024-02-13T04:19:04.976Z,99243.34
2024-02-13T04:21:39.169Z,99248.88
2024-02-13T04:24:12.726Z,99249.66
2024-02-13T04:26:45.888Z,99256.47
2024-02-13T04:29:20.209Z,99245.72
2024-02-13T04:31:53.280Z,99254.34
2024-02-13T04:34:29.263Z,99257.72
2024-02-13T04:37:03.974Z,99248.41
2024-02-13T04:39:37.202Z,99251.13
2024-02-13T04:42:11.540Z,99247.72
2024-02-13T04:44:46.030Z,99253.66
2024-02-13T04:47:20.122Z,99251.69
2024-02-13T04:49:53.080Z,99241.91
2024-02-13T04:52:26.324Z,99252.66
2024-02-13T04:54:59.425Z,99260.41
2024-02-13T04:57:34.818Z,99261.75
2024-02-13T05:00:19.684Z,99262.59
2024-02-13T05:03:04.053Z,99256.97
2024-02-13T05:05:54.862Z,99267.88
2024-02-13T05:08:27.832Z,99269.88
2024-02-13T05:11:00.714Z,99261.81
2024-02-13T05:13:33.643Z,99267.72
2024-02-13T05:16:09.947Z,99272.31
2024-02-13T05:18:43.283Z,99271.13
2024-02-13T05:21:16.974Z,99268.00
2024-02-13T05:23:50.490Z,99274.38
2024-02-13T05:26:24.151Z,99282.66
2024-02-13T05:28:57.991Z,99284.03
2024-02-13T05:31:32.506Z,99280.94
2024-02-13T05:34:05.752Z,99293.00
2024-02-13T05:36:38.805Z,99287.75
2024-02-13T05:39:11.778Z,99284.72
2024-02-13T05:41:44.704Z,99283.09
2024-02-13T05:44:18.088Z,99276.78
2024-02-13T05:46:52.928Z,99283.41
2024-02-13T05:49:25.896Z,99287.38
2024-02-13T05:51:58.880Z,99296.81
2024-02-13T05:54:31.856Z,99293.28
2024-02-13T05:57:05.277Z,99291.09
2024-02-13T05:59:38.206Z,99306.66
2024-02-13T06:02:12.425Z,99306.75
2024-02-13T06:04:45.454Z,99315.13
2024-02-13T06:07:18.257Z,99317.50
2024-02-13T06:09:51.112Z,99319.44
2024-02-13T06:12:23.954Z,99315.81
2024-02-13T06:14:57.041Z,99341.75
2024-02-13T06:17:31.337Z,99344.03
2024-02-13T06:20:06.597Z,99335.97
2024-02-13T06:22:41.446Z,99345.06
2024-02-13T06:25:16.067Z,99350.91
2024-02-13T06:27:49.442Z,99342.56
2024-02-13T06:30:22.494Z,99342.84
2024-02-13T06:32:56.853Z,99343.88
2024-02-13T06:35:29.995Z,99357.19
2024-02-13T06:38:02.828Z,99361.16
2024-02-13T06:40:35.764Z,99360.06
2024-02-13T06:43:08.615Z,99363.84
2024-02-13T06:45:41.414Z,99361.88
2024-02-13T06:48:16.239Z,99357.34
2024-02-13T06:50:49.975Z,99374.19
2024-02-13T06:53:28.268Z,99376.06
2024-02-13T06:56:01.165Z,99382.16
2024-02-13T06:58:34.312Z,99394.16
2024-02-13T07:01:07.420Z,99389.47
2024-02-13T07:03:42.978Z,99391.59
2024-02-13T07:06:29.139Z,99385.88
2024-02-13T07:09:11.900Z,99390.75
2024-02-13T07:11:44.841Z,99389.84
2024-02-13T07:14:17.675Z,99394.19
2024-02-13T07:16:50.541Z,99395.50
2024-02-13T07:19:26.921Z,99397.84
2024-02-13T07:22:00.372Z,99402.63
2024-02-13T07:24:33.655Z,99407.25
2024-02-13T07:27:07.362Z,99409.44
2024-02-13T07:29:41.635Z,99410.75
2024-02-13T07:32:15.606Z,99411.13
2024-02-13T07:34:50.388Z,99419.00
2024-02-13T07:37:24.729Z,99434.97
2024-02-13T07:39:58.077Z,99434.91
2024-02-13T07:42:31.510Z,99433.13
2024-02-13T07:45:05.323Z,99435.13
2024-02-13T07:47:40.789Z,99439.13
2024-02-13T07:50:16.140Z,99434.38
2024-02-13T07:52:49.611Z,99445.44
2024-02-13T07:55:24.191Z,99441.25
2024-02-13T07:57:57.827Z,99442.69
2024-02-13T08:00:34.527Z,99436.34
2024-02-13T08:03:08.244Z,99444.44
2024-02-13T08:05:42.962Z,99451.34
2024-02-13T08:08:16.349Z,99445.41
2024-02-13T08:10:50.024Z,99452.56
2024-02-13T08:13:23.440Z,99446.84
2024-02-13T08:15:56.868Z,99445.13
2024-02-13T08:18:30.454Z,99436.63
2024-02-13T08:21:05.942Z,99439.91
2024-02-13T08:23:38.984Z,99440.41
2024-02-13T08:26:12.736Z,99431.63
2024-02-13T08:28:46.051Z,99427.66
2024-02-13T08:31:19.207Z,99437.53
2024-02-13T08:33:52.523Z,99441.28
2024-02-13T08:36:27.015Z,99442.75
2024-02-13T08:39:00.012Z,99448.91
2024-02-13T08:41:34.072Z,99450.44
2024-02-13T08:44:09.116Z,99441.94
2024-02-13T08:46:42.215Z,99448.75
2024-02-13T08:49:15.695Z,99450.66
2024-02-13T08:51:50.309Z,99447.41
2024-02-13T08:54:23.239Z,99448.94
2024-02-13T08:56:56.234Z,99449.78
2024-02-13T08:59:30.090Z,99446.28
2024-02-13T09:02:02.969Z,99445.19
2024-02-13T09:04:35.871Z,99453.47
2024-02-13T09:07:10.292Z,99453.50
2024-02-13T09:09:43.323Z,99456.69
2024-02-13T09:12:16.312Z,99454.84
2024-02-13T09:14:49.213Z,99460.03
2024-02-13T09:17:22.153Z,99455.25
2024-02-13T09:19:55.097Z,99450.94
2024-02-13T09:22:29.501Z,99453.56
2024-02-13T09:25:02.408Z,99463.19
2024-02-13T09:27:35.637Z,99460.69
2024-02-13T09:30:11.894Z,99467.44
2024-02-13T09:32:45.467Z,99460.03
2024-02-13T09:35:19.027Z,99472.63
2024-02-13T09:37:53.525Z,99473.03
2024-02-13T09:40:29.553Z,99469.91
2024-02-13T09:43:02.782Z,99475.06
2024-02-13T09:45:36.188Z,99480.22
2024-02-13T09:48:17.480Z,99483.44
2024-02-13T09:50:52.347Z,99481.06
2024-02-13T09:53:28.994Z,99479.16
2024-02-13T09:56:02.685Z,99489.88
2024-02-13T09:58:36.536Z,99489.47
2024-02-13T10:01:10.040Z,99493.09
2024-02-13T10:03:43.273Z,99498.63
2024-02-13T10:06:16.431Z,99507.00
2024-02-13T10:08:54.535Z,99498.66
2024-02-13T10:11:32.308Z,99501.03
2024-02-13T10:14:06.799Z,99504.63
2024-02-13T10:16:39.891Z,99513.31
2024-02-13T10:19:14.506Z,99512.09
2024-02-13T10:21:50.703Z,99517.69
2024-02-13T10:24:25.286Z,99526.81
2024-02-13T10:27:00.443Z,99528.41
2024-02-13T10:29:42.688Z,99530.78
2024-02-13T10:32:18.354Z,99536.69
2024-02-13T10:34:51.639Z,99537.88
2024-02-13T10:37:28.664Z,99532.75
2024-02-13T10:40:06.362Z,99536.34
2024-02-13T10:42:43.010Z,99537.16
2024-02-13T10:45:17.099Z,99536.34
2024-02-13T10:47:52.814Z,99536.38
2024-02-13T10:50:26.194Z,99514.94
2024-02-13T10:53:01.141Z,99524.44
2024-02-13T10:55:39.108Z,99516.31
2024-02-13T10:58:24.186Z,99524.44
2024-02-13T11:01:01.804Z,99516.09
2024-02-13T11:03:37.553Z,99506.47
2024-02-13T11:06:12.132Z,99511.50
2024-02-13T11:08:45.616Z,99514.50
2024-02-13T11:11:21.942Z,99515.13
2024-02-13T11:13:55.025Z,99519.63
2024-02-13T11:16:36.007Z,99513.19
2024-02-13T11:19:12.919Z,99522.63
2024-02-13T11:21:49.257Z,99513.84
2024-02-13T11:24:23.437Z,99524.56
2024-02-13T11:27:17.039Z,99507.50
2024-02-13T11:29:59.375Z,99505.44
2024-02-13T11:32:37.571Z,99508.59
2024-02-13T11:35:12.754Z,99500.41
2024-02-13T11:37:48.023Z,99495.22
2024-02-13T11:40:22.359Z,99494.53
2024-02-13T11:42:58.549Z,99506.59
2024-02-13T11:45:32.446Z,99504.63
2024-02-13T11:48:08.252Z,99511.09
2024-02-13T11:50:43.102Z,99507.69
2024-02-13T11:53:20.092Z,99496.91
2024-02-13T11:56:01.152Z,99487.75
2024-02-13T11:58:41.989Z,99487.34
2024-02-13T12:01:20.623Z,99480.38
2024-02-13T12:03:54.296Z,99489.25
2024-02-13T12:06:29.532Z,99481.66
2024-02-13T12:09:04.228Z,99481.03
2024-02-13T12:11:38.511Z,99475.44
2024-02-13T12:14:14.478Z,99479.59
2024-02-13T12:16:47.765Z,99479.69
2024-02-13T12:19:21.431Z,99479.06
2024-02-13T12:21:54.757Z,99484.25
2024-02-13T12:24:27.731Z,99483.38
2024-02-13T12:27:01.048Z,99480.47
2024-02-13T12:29:40.601Z,99471.41
2024-02-13T12:32:17.736Z,99481.03
2024-02-13T12:34:52.041Z,99471.59
2024-02-13T12:37:25.741Z,99485.59
2024-02-13T12:40:15.759Z,99488.28
2024-02-13T12:42:48.919Z,99479.13
2024-02-13T12:45:23.671Z,99474.84
2024-02-13T12:47:59.732Z,99463.09
2024-02-13T12:50:37.393Z,99461.09
2024-02-13T12:53:13.055Z,99471.06
2024-02-13T12:55:50.513Z,99467.69
2024-02-13T12:58:29.785Z,99464.81
2024-02-13T13:01:05.842Z,99468.97
2024-02-13T13:03:40.234Z,99475.97
2024-02-13T13:06:13.824Z,99478.84
2024-02-13T13:08:48.655Z,99476.53
2024-02-13T13:11:30.177Z,99476.22
2024-02-13T13:14:03.904Z,99482.59
2024-02-13T13:16:39.440Z,99478.78
2024-02-13T13:19:15.110Z,99477.84
2024-02-13T13:21:48.523Z,99479.44
2024-02-13T13:24:21.369Z,99479.03
2024-02-13T13:26:55.167Z,99471.50
2024-02-13T13:29:31.234Z,99471.94
2024-02-13T13:32:07.250Z,99473.00
2024-02-13T13:34:40.148Z,99474.97
2024-02-13T13:37:13.094Z,99467.31
2024-02-13T13:39:46.450Z,99472.25
2024-02-13T13:42:21.918Z,99461.56
2024-02-13T13:44:54.982Z,99473.09
2024-02-13T13:47:29.590Z,99474.38
2024-02-13T13:50:02.538Z,99476.72
2024-02-13T13:52:35.404Z,99480.28
2024-02-13T13:55:09.021Z,99471.34
2024-02-13T13:57:42.532Z,99468.00
2024-02-13T14:00:22.142Z,99463.59
2024-02-13T14:02:56.956Z,99477.31
2024-02-13T14:05:31.823Z,99486.84
2024-02-13T14:08:06.113Z,99480.84
2024-02-13T14:10:40.378Z,99486.94
2024-02-13T14:13:13.252Z,99476.97
2024-02-13T14:15:46.405Z,99485.19
2024-02-13T14:18:21.748Z,99484.94
2024-02-13T14:20:55.317Z,99480.59
2024-02-13T14:23:30.369Z,99478.47
2024-02-13T14:26:05.299Z,99484.28
2024-02-13T14:28:38.241Z,99479.03
2024-02-13T14:31:12.325Z,99483.38
2024-02-13T14:33:50.024Z,99481.69
2024-02-13T14:36:24.650Z,99489.22
2024-02-13T14:38:57.562Z,99484.41
2024-02-13T14:41:31.945Z,99481.50
2024-02-13T14:44:07.285Z,99483.72
2024-02-13T14:46:40.314Z,99486.09
2024-02-13T14:49:14.821Z,99486.13
2024-02-13T14:51:47.938Z,99485.84
2024-02-13T14:54:22.391Z,99486.53
2024-02-13T14:56:55.359Z,99486.72
2024-02-13T14:59:28.691Z,99487.81
2024-02-13T15:02:01.903Z,99481.31
2024-02-13T15:04:36.226Z,99491.28
2024-02-13T15:07:09.726Z,99478.38
2024-02-13T15:09:42.824Z,99496.50
2024-02-13T15:12:16.057Z,99493.69
2024-02-13T15:14:51.019Z,99493.09
2024-02-13T15:17:24.220Z,99494.28
2024-02-13T15:20:00.680Z,99493.69
2024-02-13T15:22:34.320Z,99496.19
2024-02-13T15:25:10.460Z,99503.31
2024-02-13T15:27:43.437Z,99509.75
2024-02-13T15:30:16.417Z,99500.25
2024-02-13T15:32:49.353Z,99503.84
2024-02-13T15:35:41.091Z,99508.31
2024-02-13T15:38:31.532Z,99499.94
2024-02-13T15:41:22.118Z,99511.66
2024-02-13T15:44:12.597Z,99510.38
2024-02-13T15:47:04.572Z,99511.72
2024-02-13T15:49:40.979Z,99515.59
2024-02-13T15:52:15.568Z,99521.22
2024-02-13T15:54:50.120Z,99520.19
2024-02-13T15:57:25.371Z,99516.13
2024-02-13T15:59:58.326Z,99527.94
2024-02-13T16:02:31.347Z,99521.22
2024-02-13T16:05:05.253Z,99528.50
2024-02-13T16:07:40.789Z,99529.31
2024-02-13T16:10:15.727Z,99534.28
2024-02-13T16:12:49.874Z,99532.25
2024-02-13T16:15:22.873Z,99535.91
2024-02-13T16:17:55.709Z,99536.72
2024-02-13T16:20:28.659Z,99544.63
2024-02-13T16:23:04.494Z,99548.78
2024-02-13T16:25:37.325Z,99547.91
2024-02-13T16:28:10.297Z,99540.75
2024-02-13T16:30:45.033Z,99538.03
2024-02-13T16:33:18.818Z,99533.75
2024-02-13T16:35:51.792Z,99532.53
2024-02-13T16:38:25.999Z,99536.56
2024-02-13T16:40:58.981Z,99549.38
2024-02-13T16:43:32.885Z,99539.00
2024-02-13T16:46:09.832Z,99554.13
2024-02-13T16:48:43.597Z,99555.69
2024-02-13T16:51:19.121Z,99555.72
2024-02-13T16:53:55.457Z,99562.84
2024-02-13T16:56:28.447Z,99566.44
2024-02-13T16:59:05.157Z,99567.25
2024-02-13T17:01:40.638Z,99564.47
2024-02-13T17:04:14.772Z,99571.66
2024-02-13T17:06:48.050Z,99579.22
2024-02-13T17:09:26.385Z,99556.97
2024-02-13T17:12:06.773Z,99573.25
2024-02-13T17:15:07.850Z,99564.50
2024-02-13T17:17:42.548Z,99560.97
2024-02-13T17:20:16.113Z,99574.06
2024-02-13T17:22:49.213Z,99565.31
2024-02-13T17:25:23.901Z,99567.31
2024-02-13T17:27:56.823Z,99562.53
2024-02-13T17:30:30.878Z,99567.31
2024-02-13T17:33:04.055Z,99570.44
2024-02-13T17:35:37.027Z,99563.72
2024-02-13T17:38:16.517Z,99564.44
2024-02-13T17:45:38.135Z,99572.84
2024-02-13T17:48:11.268Z,99569.22
2024-02-13T17:50:44.375Z,99571.22
2024-02-13T17:53:17.519Z,99582.22
2024-02-13T17:55:50.527Z,99581.41
2024-02-13T17:58:23.659Z,99572.66
2024-02-13T18:00:59.593Z,99574.22
2024-02-13T18:03:32.880Z,99564.69
2024-02-13T18:06:06.237Z,99576.19
2024-02-13T18:09:00.287Z,99569.38
2024-02-13T18:11:34.590Z,99569.03
2024-02-13T18:14:07.853Z,99571.00
2024-02-13T18:16:42.140Z,99567.00
2024-02-13T18:19:15.278Z,99569.94
2024-02-13T18:21:50.559Z,99574.44
2024-02-13T18:24:27.506Z,99568.34
2024-02-13T18:27:00.697Z,99579.13
2024-02-13T18:29:34.815Z,99577.78
2024-02-13T18:32:09.523Z,99575.16
2024-02-13T18:34:44.689Z,99576.28
2024-02-13T18:37:19.212Z,99574.84
2024-02-13T18:39:52.940Z,99575.09
2024-02-13T18:42:25.953Z,99565.25
2024-02-13T18:44:59.618Z,99568.94
2024-02-13T18:47:34.120Z,99568.59
2024-02-13T18:50:08.422Z,99572.31
2024-02-13T18:53:27.669Z,99571.25
2024-02-13T18:56:01.086Z,99575.88
2024-02-13T18:58:37.218Z,99572.25
2024-02-13T19:01:11.049Z,99577.13
2024-02-13T19:03:45.644Z,99579.69
2024-02-13T19:06:19.441Z,99580.63
2024-02-13T19:08:52.502Z,99583.63
2024-02-13T19:11:25.570Z,99583.16
2024-02-13T19:13:58.558Z,99582.19
2024-02-13T19:16:31.543Z,99588.28
2024-02-13T19:19:06.133Z,99589.59
2024-02-13T19:21:41.305Z,99577.47
2024-02-13T19:24:14.329Z,99575.72
2024-02-13T19:26:47.555Z,99571.25
2024-02-13T19:29:20.755Z,99559.66
2024-02-13T19:31:53.826Z,99568.19
2024-02-13T19:34:28.751Z,99576.13
2024-02-13T19:37:01.742Z,99559.47
2024-02-13T19:39:38.040Z,99564.91
2024-02-13T19:42:11.903Z,99575.75
2024-02-13T19:44:46.003Z,99565.25
2024-02-13T19:47:19.747Z,99560.81
2024-02-13T19:49:56.398Z,99566.53
2024-02-13T19:52:30.248Z,99555.34
2024-02-13T19:55:03.695Z,99560.63
2024-02-13T19:57:36.728Z,99562.09
2024-02-13T20:00:10.994Z,99559.88
2024-02-13T20:02:44.569Z,99571.31
2024-02-13T20:05:19.560Z,99572.03
2024-02-13T20:07:52.562Z,99573.81
2024-02-13T20:10:25.891Z,99580.19
2024-02-13T20:12:59.002Z,99577.78
2024-02-13T20:15:32.131Z,99580.66
2024-02-13T20:18:06.108Z,99576.16
2024-02-13T20:20:40.750Z,99583.06
2024-02-13T20:23:13.869Z,99581.09
2024-02-13T20:25:46.988Z,99589.06
2024-02-13T20:28:20.132Z,99587.16
2024-02-13T20:30:53.176Z,99585.63
2024-02-13T20:33:32.016Z,99600.97
2024-02-13T20:36:09.133Z,99594.78
2024-02-13T20:38:44.645Z,99595.56
2024-02-13T20:41:19.184Z,99600.81
2024-02-13T20:43:52.144Z,99599.22
2024-02-13T20:46:25.242Z,99592.91
2024-02-13T20:48:59.301Z,99593.81
2024-02-13T20:51:34.621Z,99596.31
2024-02-13T20:54:07.979Z,99593.22
2024-02-13T20:56:41.283Z,99601.78
2024-02-13T20:59:18.127Z,99606.84
2024-02-13T21:01:52.592Z,99602.19
2024-02-13T21:04:29.884Z,99598.06
2024-02-13T21:07:05.778Z,99600.31
2024-02-13T21:09:38.843Z,99605.19
2024-02-13T21:12:12.123Z,99601.13
2024-02-13T21:14:45.521Z,99598.44
2024-02-13T21:17:19.351Z,99602.25
2024-02-13T21:19:57.293Z,99606.25
2024-02-13T21:22:49.009Z,99605.91
2024-02-13T21:25:23.135Z,99602.41
2024-02-13T21:27:56.399Z,99600.38
2024-02-13T21:30:32.332Z,99602.31
2024-02-13T21:33:08.639Z,99601.59
2024-02-13T21:35:42.378Z,99602.44
2024-02-13T21:38:16.738Z,99597.47
2024-02-13T21:40:49.677Z,99598.22
2024-02-13T21:43:23.028Z,99599.56
2024-02-13T21:45:56.487Z,99590.91
2024-02-13T21:48:29.603Z,99599.22
2024-02-13T21:51:03.821Z,99598.06
2024-02-13T21:53:38.394Z,99595.56
2024-02-13T21:56:11.513Z,99595.38
2024-02-13T21:58:45.356Z,99596.97
2024-02-13T22:01:18.450Z,99599.50
2024-02-13T22:03:51.594Z,99597.88
2024-02-13T22:06:26.599Z,99593.03
2024-02-13T22:09:01.164Z,99595.75
2024-02-13T22:11:34.723Z,99592.34
2024-02-13T22:14:07.801Z,99582.63
2024-02-13T22:16:41.732Z,99581.66
2024-02-13T22:19:16.228Z,99580.09
2024-02-13T22:21:49.433Z,99582.84
2024-02-13T22:24:26.058Z,99575.47
2024-02-13T22:26:59.106Z,99572.19
2024-02-13T22:29:32.144Z,99575.47
2024-02-13T22:32:05.595Z,99585.41
2024-02-13T22:34:41.485Z,99579.13
2024-02-13T22:37:14.427Z,99576.19
2024-02-13T22:39:48.832Z,99577.88
2024-02-13T22:42:24.016Z,99581.94
2024-02-13T22:44:57.107Z,99581.94
2024-02-13T22:47:30.243Z,99582.44
2024-02-13T22:50:05.546Z,99578.88
2024-02-13T22:52:38.699Z,99587.63
2024-02-13T22:55:13.156Z,99581.69
2024-02-13T22:57:46.246Z,99584.66
2024-02-13T23:00:42.072Z,99592.19
2024-02-13T23:03:15.900Z,99588.88
2024-02-13T23:05:52.155Z,99584.97
2024-02-13T23:08:29.819Z,99583.41
2024-02-13T23:11:05.889Z,99570.59
2024-02-13T23:13:44.312Z,99577.53
2024-02-13T23:16:24.438Z,99578.41
2024-02-13T23:18:57.808Z,99579.31
2024-02-13T23:21:31.859Z,99588.06
2024-02-13T23:24:06.322Z,99580.03
2024-02-13T23:26:41.937Z,99585.97
2024-02-13T23:29:13.986Z,99579.22
2024-02-13T23:31:47.026Z,99577.69
2024-02-13T23:34:20.394Z,99579.00
2024-02-13T23:36:53.653Z,99571.59
2024-02-13T23:39:26.751Z,99583.44
2024-02-13T23:42:01.234Z,99578.72
2024-02-13T23:44:34.369Z,99582.69
2024-02-13T23:47:07.441Z,99579.88
2024-02-13T23:49:40.803Z,99579.84
2024-02-13T23:52:13.940Z,99574.81
2024-02-13T23:54:47.208Z,99580.91
2024-02-13T23:57:21.663Z,99583.91
2024-02-13T23:59:56.770Z,99578.31
